sensor_id;sensor_type;location;lat;lon;timestamp;P1;durP1;ratioP1;P2;durP2;ratioP2
3841;SDS011;1936;47.074;15.336;2023-02-24T00:01:33;49.88;;;28.15;;
3841;SDS011;1936;47.074;15.336;2023-02-24T00:03:38;40.33;;;28.42;;
3841;SDS011;1936;47.074;15.336;2023-02-24T00:05:42;33.85;;;23.48;;
3841;SDS011;1936;47.074;15.336;2023-02-24T00:07:50;39.63;;;26.88;;
3841;SDS011;1936;47.074;15.336;2023-02-24T00:09:55;38.13;;;24.08;;
3841;SDS011;1936;47.074;15.336;2023-02-24T00:11:59;37.05;;;24.38;;
3841;SDS011;1936;47.074;15.336;2023-02-24T00:14:04;34.13;;;23.35;;
3841;SDS011;1936;47.074;15.336;2023-02-24T00:16:09;35.00;;;22.73;;
3841;SDS011;1936;47.074;15.336;2023-02-24T00:18:13;28.67;;;21.08;;
3841;SDS011;1936;47.074;15.336;2023-02-24T00:20:17;28.40;;;20.30;;
3841;SDS011;1936;47.074;15.336;2023-02-24T00:22:21;33.78;;;20.13;;
3841;SDS011;1936;47.074;15.336;2023-02-24T00:24:24;27.17;;;21.27;;
3841;SDS011;1936;47.074;15.336;2023-02-24T00:26:30;33.28;;;22.17;;
3841;SDS011;1936;47.074;15.336;2023-02-24T00:28:33;30.23;;;21.00;;
3841;SDS011;1936;47.074;15.336;2023-02-24T00:30:37;34.22;;;22.33;;
3841;SDS011;1936;47.074;15.336;2023-02-24T00:32:41;28.02;;;20.05;;
3841;SDS011;1936;47.074;15.336;2023-02-24T00:34:46;32.72;;;21.70;;
3841;SDS011;1936;47.074;15.336;2023-02-24T00:36:50;29.88;;;20.83;;
3841;SDS011;1936;47.074;15.336;2023-02-24T00:38:54;29.40;;;20.67;;
3841;SDS011;1936;47.074;15.336;2023-02-24T00:40:59;31.17;;;21.52;;
3841;SDS011;1936;47.074;15.336;2023-02-24T00:43:04;34.78;;;25.13;;
3841;SDS011;1936;47.074;15.336;2023-02-24T00:45:09;29.85;;;21.42;;
3841;SDS011;1936;47.074;15.336;2023-02-24T00:47:13;27.17;;;22.08;;
3841;SDS011;1936;47.074;15.336;2023-02-24T00:49:18;29.63;;;20.90;;
3841;SDS011;1936;47.074;15.336;2023-02-24T00:51:24;41.20;;;24.40;;
3841;SDS011;1936;47.074;15.336;2023-02-24T00:53:28;30.50;;;20.83;;
3841;SDS011;1936;47.074;15.336;2023-02-24T00:55:31;32.85;;;21.02;;
3841;SDS011;1936;47.074;15.336;2023-02-24T00:57:37;31.48;;;20.58;;
3841;SDS011;1936;47.074;15.336;2023-02-24T00:59:42;31.65;;;22.20;;
3841;SDS011;1936;47.074;15.336;2023-02-24T01:01:48;35.20;;;23.67;;
3841;SDS011;1936;47.074;15.336;2023-02-24T01:03:52;40.42;;;23.38;;
3841;SDS011;1936;47.074;15.336;2023-02-24T01:05:59;36.58;;;21.40;;
3841;SDS011;1936;47.074;15.336;2023-02-24T01:08:04;31.08;;;22.63;;
3841;SDS011;1936;47.074;15.336;2023-02-24T01:10:09;30.77;;;21.83;;
3841;SDS011;1936;47.074;15.336;2023-02-24T01:12:13;32.78;;;21.38;;
3841;SDS011;1936;47.074;15.336;2023-02-24T01:14:34;31.80;;;21.70;;
3841;SDS011;1936;47.074;15.336;2023-02-24T01:16:45;32.38;;;21.45;;
3841;SDS011;1936;47.074;15.336;2023-02-24T01:18:50;35.05;;;22.67;;
3841;SDS011;1936;47.074;15.336;2023-02-24T01:20:54;29.08;;;21.70;;
3841;SDS011;1936;47.074;15.336;2023-02-24T01:23:00;32.00;;;20.60;;
3841;SDS011;1936;47.074;15.336;2023-02-24T01:25:04;37.17;;;23.67;;
3841;SDS011;1936;47.074;15.336;2023-02-24T01:27:09;29.42;;;20.92;;
3841;SDS011;1936;47.074;15.336;2023-02-24T01:29:14;31.27;;;20.52;;
3841;SDS011;1936;47.074;15.336;2023-02-24T01:31:18;32.17;;;22.15;;
3841;SDS011;1936;47.074;15.336;2023-02-24T01:33:26;34.50;;;22.67;;
3841;SDS011;1936;47.074;15.336;2023-02-24T01:35:30;34.97;;;23.00;;
3841;SDS011;1936;47.074;15.336;2023-02-24T01:37:35;30.40;;;22.40;;
3841;SDS011;1936;47.074;15.336;2023-02-24T01:39:39;29.77;;;21.25;;
3841;SDS011;1936;47.074;15.336;2023-02-24T01:41:43;24.58;;;19.60;;
3841;SDS011;1936;47.074;15.336;2023-02-24T01:43:54;31.27;;;22.50;;
3841;SDS011;1936;47.074;15.336;2023-02-24T01:46:00;35.85;;;21.25;;
3841;SDS011;1936;47.074;15.336;2023-02-24T01:48:04;28.70;;;19.95;;
3841;SDS011;1936;47.074;15.336;2023-02-24T01:50:12;40.05;;;21.58;;
3841;SDS011;1936;47.074;15.336;2023-02-24T01:52:22;32.65;;;23.75;;
3841;SDS011;1936;47.074;15.336;2023-02-24T01:54:29;44.08;;;23.02;;
3841;SDS011;1936;47.074;15.336;2023-02-24T01:56:35;30.83;;;23.30;;
3841;SDS011;1936;47.074;15.336;2023-02-24T01:58:41;32.88;;;22.85;;
3841;SDS011;1936;47.074;15.336;2023-02-24T02:00:45;31.98;;;20.88;;
3841;SDS011;1936;47.074;15.336;2023-02-24T02:02:48;33.65;;;23.73;;
3841;SDS011;1936;47.074;15.336;2023-02-24T02:04:54;38.83;;;22.17;;
3841;SDS011;1936;47.074;15.336;2023-02-24T02:07:00;30.70;;;20.50;;
3841;SDS011;1936;47.074;15.336;2023-02-24T02:09:05;38.42;;;23.42;;
3841;SDS011;1936;47.074;15.336;2023-02-24T02:11:11;29.27;;;20.75;;
3841;SDS011;1936;47.074;15.336;2023-02-24T02:13:17;34.40;;;22.65;;
3841;SDS011;1936;47.074;15.336;2023-02-24T02:15:22;33.95;;;22.65;;
3841;SDS011;1936;47.074;15.336;2023-02-24T02:17:27;37.13;;;24.30;;
3841;SDS011;1936;47.074;15.336;2023-02-24T02:19:54;41.38;;;21.48;;
3841;SDS011;1936;47.074;15.336;2023-02-24T02:22:22;35.30;;;21.77;;
3841;SDS011;1936;47.074;15.336;2023-02-24T02:24:52;37.53;;;26.10;;
3841;SDS011;1936;47.074;15.336;2023-02-24T02:27:08;33.85;;;22.95;;
3841;SDS011;1936;47.074;15.336;2023-02-24T02:34:46;29.23;;;22.17;;
3841;SDS011;1936;47.074;15.336;2023-02-24T02:36:56;34.65;;;22.38;;
3841;SDS011;1936;47.074;15.336;2023-02-24T02:39:09;35.33;;;20.65;;
3841;SDS011;1936;47.074;15.336;2023-02-24T02:41:20;31.75;;;20.83;;
3841;SDS011;1936;47.074;15.336;2023-02-24T02:43:27;28.70;;;20.50;;
3841;SDS011;1936;47.074;15.336;2023-02-24T02:45:37;33.35;;;22.20;;
3841;SDS011;1936;47.074;15.336;2023-02-24T02:47:49;30.73;;;20.63;;
3841;SDS011;1936;47.074;15.336;2023-02-24T02:49:56;38.13;;;20.85;;
3841;SDS011;1936;47.074;15.336;2023-02-24T02:52:05;31.90;;;20.85;;
3841;SDS011;1936;47.074;15.336;2023-02-24T02:54:16;30.48;;;20.35;;
3841;SDS011;1936;47.074;15.336;2023-02-24T02:56:28;29.25;;;20.58;;
3841;SDS011;1936;47.074;15.336;2023-02-24T02:58:37;30.58;;;20.77;;
3841;SDS011;1936;47.074;15.336;2023-02-24T03:00:43;34.42;;;23.10;;
3841;SDS011;1936;47.074;15.336;2023-02-24T03:03:00;34.40;;;20.48;;
3841;SDS011;1936;47.074;15.336;2023-02-24T03:05:10;30.38;;;22.83;;
3841;SDS011;1936;47.074;15.336;2023-02-24T03:07:22;28.98;;;21.67;;
3841;SDS011;1936;47.074;15.336;2023-02-24T03:09:32;30.52;;;21.88;;
3841;SDS011;1936;47.074;15.336;2023-02-24T03:11:37;26.38;;;21.35;;
3841;SDS011;1936;47.074;15.336;2023-02-24T03:13:42;34.55;;;22.55;;
3841;SDS011;1936;47.074;15.336;2023-02-24T03:15:50;39.90;;;22.88;;
3841;SDS011;1936;47.074;15.336;2023-02-24T03:17:58;36.20;;;23.48;;
3841;SDS011;1936;47.074;15.336;2023-02-24T03:20:14;35.92;;;22.27;;
3841;SDS011;1936;47.074;15.336;2023-02-24T03:22:23;30.45;;;21.95;;
3841;SDS011;1936;47.074;15.336;2023-02-24T03:24:35;31.48;;;20.98;;
3841;SDS011;1936;47.074;15.336;2023-02-24T03:26:39;30.48;;;20.60;;
3841;SDS011;1936;47.074;15.336;2023-02-24T03:28:47;33.28;;;22.20;;
3841;SDS011;1936;47.074;15.336;2023-02-24T03:31:00;28.52;;;21.30;;
3841;SDS011;1936;47.074;15.336;2023-02-24T03:33:14;38.90;;;22.92;;
3841;SDS011;1936;47.074;15.336;2023-02-24T03:35:23;32.25;;;20.75;;
3841;SDS011;1936;47.074;15.336;2023-02-24T03:37:29;32.45;;;22.70;;
3841;SDS011;1936;47.074;15.336;2023-02-24T03:39:34;29.73;;;20.45;;
3841;SDS011;1936;47.074;15.336;2023-02-24T03:41:39;35.88;;;22.35;;
3841;SDS011;1936;47.074;15.336;2023-02-24T03:43:47;31.55;;;19.83;;
3841;SDS011;1936;47.074;15.336;2023-02-24T03:45:52;30.80;;;22.40;;
3841;SDS011;1936;47.074;15.336;2023-02-24T03:47:57;30.45;;;21.35;;
3841;SDS011;1936;47.074;15.336;2023-02-24T03:50:08;30.58;;;20.90;;
3841;SDS011;1936;47.074;15.336;2023-02-24T03:52:18;30.00;;;20.05;;
3841;SDS011;1936;47.074;15.336;2023-02-24T03:54:36;28.92;;;22.00;;
3841;SDS011;1936;47.074;15.336;2023-02-24T03:56:52;29.83;;;20.20;;
3841;SDS011;1936;47.074;15.336;2023-02-24T03:59:09;27.50;;;20.92;;
3841;SDS011;1936;47.074;15.336;2023-02-24T04:01:18;27.67;;;19.63;;
3841;SDS011;1936;47.074;15.336;2023-02-24T04:03:29;32.53;;;21.52;;
3841;SDS011;1936;47.074;15.336;2023-02-24T04:05:38;27.45;;;19.73;;
3841;SDS011;1936;47.074;15.336;2023-02-24T04:07:49;27.95;;;19.92;;
3841;SDS011;1936;47.074;15.336;2023-02-24T04:10:02;30.55;;;20.98;;
3841;SDS011;1936;47.074;15.336;2023-02-24T04:12:12;27.48;;;19.52;;
3841;SDS011;1936;47.074;15.336;2023-02-24T04:14:21;29.83;;;19.30;;
3841;SDS011;1936;47.074;15.336;2023-02-24T04:16:31;28.58;;;19.73;;
3841;SDS011;1936;47.074;15.336;2023-02-24T04:18:41;32.05;;;19.65;;
3841;SDS011;1936;47.074;15.336;2023-02-24T04:20:49;26.92;;;17.55;;
3841;SDS011;1936;47.074;15.336;2023-02-24T04:22:56;27.52;;;20.02;;
3841;SDS011;1936;47.074;15.336;2023-02-24T04:25:04;28.67;;;19.85;;
3841;SDS011;1936;47.074;15.336;2023-02-24T04:27:13;24.40;;;17.98;;
3841;SDS011;1936;47.074;15.336;2023-02-24T04:29:18;27.08;;;17.63;;
3841;SDS011;1936;47.074;15.336;2023-02-24T04:31:24;35.55;;;19.80;;
3841;SDS011;1936;47.074;15.336;2023-02-24T04:33:30;28.00;;;17.77;;
3841;SDS011;1936;47.074;15.336;2023-02-24T04:35:34;24.77;;;16.63;;
3841;SDS011;1936;47.074;15.336;2023-02-24T04:37:40;25.25;;;16.30;;
3841;SDS011;1936;47.074;15.336;2023-02-24T04:39:46;28.70;;;17.13;;
3841;SDS011;1936;47.074;15.336;2023-02-24T04:41:51;39.63;;;22.27;;
3841;SDS011;1936;47.074;15.336;2023-02-24T04:43:54;34.97;;;22.65;;
3841;SDS011;1936;47.074;15.336;2023-02-24T04:45:58;39.97;;;19.92;;
3841;SDS011;1936;47.074;15.336;2023-02-24T04:48:08;38.10;;;21.35;;
3841;SDS011;1936;47.074;15.336;2023-02-24T04:50:13;38.72;;;20.52;;
3841;SDS011;1936;47.074;15.336;2023-02-24T04:52:23;32.60;;;20.25;;
3841;SDS011;1936;47.074;15.336;2023-02-24T04:54:26;33.20;;;20.20;;
3841;SDS011;1936;47.074;15.336;2023-02-24T04:56:31;27.92;;;16.92;;
3841;SDS011;1936;47.074;15.336;2023-02-24T04:58:38;27.42;;;17.45;;
3841;SDS011;1936;47.074;15.336;2023-02-24T05:00:44;28.70;;;17.35;;
3841;SDS011;1936;47.074;15.336;2023-02-24T05:02:49;24.98;;;17.20;;
3841;SDS011;1936;47.074;15.336;2023-02-24T05:04:55;25.17;;;16.00;;
3841;SDS011;1936;47.074;15.336;2023-02-24T05:06:59;32.35;;;19.20;;
3841;SDS011;1936;47.074;15.336;2023-02-24T05:09:03;26.25;;;16.00;;
3841;SDS011;1936;47.074;15.336;2023-02-24T05:11:14;30.35;;;16.95;;
3841;SDS011;1936;47.074;15.336;2023-02-24T05:13:22;25.98;;;16.08;;
3841;SDS011;1936;47.074;15.336;2023-02-24T05:15:28;24.20;;;15.15;;
3841;SDS011;1936;47.074;15.336;2023-02-24T05:17:32;27.15;;;16.00;;
3841;SDS011;1936;47.074;15.336;2023-02-24T05:19:36;26.30;;;15.13;;
3841;SDS011;1936;47.074;15.336;2023-02-24T05:21:57;24.10;;;16.38;;
3841;SDS011;1936;47.074;15.336;2023-02-24T05:24:03;25.80;;;15.43;;
3841;SDS011;1936;47.074;15.336;2023-02-24T05:26:08;20.35;;;14.75;;
3841;SDS011;1936;47.074;15.336;2023-02-24T05:28:12;26.52;;;15.68;;
3841;SDS011;1936;47.074;15.336;2023-02-24T05:30:17;20.33;;;15.00;;
3841;SDS011;1936;47.074;15.336;2023-02-24T05:32:21;17.42;;;13.40;;
3841;SDS011;1936;47.074;15.336;2023-02-24T05:34:25;16.88;;;13.07;;
3841;SDS011;1936;47.074;15.336;2023-02-24T05:36:32;17.88;;;13.38;;
3841;SDS011;1936;47.074;15.336;2023-02-24T05:38:36;18.83;;;13.07;;
3841;SDS011;1936;47.074;15.336;2023-02-24T05:40:40;18.10;;;14.13;;
3841;SDS011;1936;47.074;15.336;2023-02-24T05:42:47;21.88;;;13.68;;
3841;SDS011;1936;47.074;15.336;2023-02-24T05:44:52;28.83;;;14.35;;
3841;SDS011;1936;47.074;15.336;2023-02-24T05:46:57;17.13;;;13.35;;
3841;SDS011;1936;47.074;15.336;2023-02-24T05:49:02;23.85;;;14.82;;
3841;SDS011;1936;47.074;15.336;2023-02-24T05:51:09;16.80;;;12.40;;
3841;SDS011;1936;47.074;15.336;2023-02-24T05:53:13;16.40;;;12.85;;
3841;SDS011;1936;47.074;15.336;2023-02-24T05:55:17;17.67;;;12.70;;
3841;SDS011;1936;47.074;15.336;2023-02-24T05:57:23;19.48;;;12.95;;
3841;SDS011;1936;47.074;15.336;2023-02-24T05:59:33;19.95;;;13.80;;
3841;SDS011;1936;47.074;15.336;2023-02-24T06:01:37;18.58;;;12.10;;
3841;SDS011;1936;47.074;15.336;2023-02-24T06:03:45;19.33;;;12.60;;
3841;SDS011;1936;47.074;15.336;2023-02-24T06:05:51;17.20;;;12.48;;
3841;SDS011;1936;47.074;15.336;2023-02-24T06:07:55;19.90;;;12.38;;
3841;SDS011;1936;47.074;15.336;2023-02-24T06:10:05;19.70;;;13.40;;
3841;SDS011;1936;47.074;15.336;2023-02-24T06:12:11;15.77;;;12.23;;
3841;SDS011;1936;47.074;15.336;2023-02-24T06:14:16;17.95;;;11.15;;
3841;SDS011;1936;47.074;15.336;2023-02-24T06:16:19;16.67;;;12.95;;
3841;SDS011;1936;47.074;15.336;2023-02-24T06:18:24;15.23;;;10.75;;
3841;SDS011;1936;47.074;15.336;2023-02-24T06:20:29;18.63;;;12.05;;
3841;SDS011;1936;47.074;15.336;2023-02-24T06:22:33;16.05;;;12.25;;
3841;SDS011;1936;47.074;15.336;2023-02-24T06:24:42;18.05;;;11.02;;
3841;SDS011;1936;47.074;15.336;2023-02-24T06:26:46;15.07;;;11.38;;
3841;SDS011;1936;47.074;15.336;2023-02-24T06:28:54;15.82;;;10.95;;
3841;SDS011;1936;47.074;15.336;2023-02-24T06:31:01;15.40;;;11.18;;
3841;SDS011;1936;47.074;15.336;2023-02-24T06:33:07;17.90;;;11.60;;
3841;SDS011;1936;47.074;15.336;2023-02-24T06:35:11;14.57;;;11.10;;
3841;SDS011;1936;47.074;15.336;2023-02-24T06:37:15;16.52;;;11.90;;
3841;SDS011;1936;47.074;15.336;2023-02-24T06:39:19;14.50;;;10.63;;
3841;SDS011;1936;47.074;15.336;2023-02-24T06:41:23;14.13;;;11.52;;
3841;SDS011;1936;47.074;15.336;2023-02-24T06:43:29;22.27;;;13.65;;
3841;SDS011;1936;47.074;15.336;2023-02-24T06:45:33;15.43;;;11.00;;
3841;SDS011;1936;47.074;15.336;2023-02-24T06:47:37;15.63;;;11.60;;
3841;SDS011;1936;47.074;15.336;2023-02-24T06:49:41;17.33;;;12.02;;
3841;SDS011;1936;47.074;15.336;2023-02-24T06:51:44;16.05;;;13.48;;
3841;SDS011;1936;47.074;15.336;2023-02-24T06:53:50;14.20;;;9.85;;
3841;SDS011;1936;47.074;15.336;2023-02-24T06:55:54;15.27;;;10.50;;
3841;SDS011;1936;47.074;15.336;2023-02-24T06:57:57;14.43;;;11.02;;
3841;SDS011;1936;47.074;15.336;2023-02-24T07:00:05;17.42;;;11.90;;
3841;SDS011;1936;47.074;15.336;2023-02-24T07:02:17;11.23;;;9.25;;
3841;SDS011;1936;47.074;15.336;2023-02-24T07:04:20;14.10;;;10.65;;
3841;SDS011;1936;47.074;15.336;2023-02-24T07:06:28;14.60;;;11.07;;
3841;SDS011;1936;47.074;15.336;2023-02-24T07:08:34;15.05;;;11.57;;
3841;SDS011;1936;47.074;15.336;2023-02-24T07:10:40;17.00;;;11.52;;
3841;SDS011;1936;47.074;15.336;2023-02-24T07:12:44;15.20;;;11.10;;
3841;SDS011;1936;47.074;15.336;2023-02-24T07:14:47;13.75;;;10.25;;
3841;SDS011;1936;47.074;15.336;2023-02-24T07:16:51;11.95;;;9.55;;
3841;SDS011;1936;47.074;15.336;2023-02-24T07:18:56;16.23;;;10.70;;
3841;SDS011;1936;47.074;15.336;2023-02-24T07:21:03;15.77;;;11.35;;
3841;SDS011;1936;47.074;15.336;2023-02-24T07:23:12;13.98;;;10.57;;
3841;SDS011;1936;47.074;15.336;2023-02-24T07:25:16;17.80;;;11.07;;
3841;SDS011;1936;47.074;15.336;2023-02-24T07:27:34;13.60;;;10.55;;
3841;SDS011;1936;47.074;15.336;2023-02-24T07:29:38;12.65;;;11.27;;
3841;SDS011;1936;47.074;15.336;2023-02-24T07:31:41;14.77;;;12.80;;
3841;SDS011;1936;47.074;15.336;2023-02-24T07:33:45;15.43;;;11.35;;
3841;SDS011;1936;47.074;15.336;2023-02-24T07:35:49;15.32;;;11.95;;
3841;SDS011;1936;47.074;15.336;2023-02-24T07:37:54;12.93;;;10.60;;
3841;SDS011;1936;47.074;15.336;2023-02-24T07:40:02;15.50;;;9.57;;
3841;SDS011;1936;47.074;15.336;2023-02-24T07:42:09;14.37;;;10.70;;
3841;SDS011;1936;47.074;15.336;2023-02-24T07:44:16;13.50;;;11.07;;
3841;SDS011;1936;47.074;15.336;2023-02-24T07:46:21;14.03;;;11.83;;
3841;SDS011;1936;47.074;15.336;2023-02-24T07:48:26;14.70;;;11.50;;
3841;SDS011;1936;47.074;15.336;2023-02-24T07:50:30;14.77;;;12.07;;
3841;SDS011;1936;47.074;15.336;2023-02-24T07:52:34;15.40;;;12.67;;
3841;SDS011;1936;47.074;15.336;2023-02-24T07:54:37;15.33;;;10.80;;
3841;SDS011;1936;47.074;15.336;2023-02-24T07:56:41;16.30;;;12.67;;
3841;SDS011;1936;47.074;15.336;2023-02-24T07:58:49;14.03;;;12.53;;
3841;SDS011;1936;47.074;15.336;2023-02-24T08:00:55;14.17;;;11.97;;
3841;SDS011;1936;47.074;15.336;2023-02-24T08:03:08;16.67;;;12.27;;
3841;SDS011;1936;47.074;15.336;2023-02-24T08:05:12;14.33;;;11.60;;
3841;SDS011;1936;47.074;15.336;2023-02-24T08:07:16;15.10;;;10.67;;
3841;SDS011;1936;47.074;15.336;2023-02-24T08:09:26;12.03;;;10.30;;
3841;SDS011;1936;47.074;15.336;2023-02-24T08:12:09;12.13;;;10.90;;
3841;SDS011;1936;47.074;15.336;2023-02-24T08:14:19;12.93;;;10.57;;
3841;SDS011;1936;47.074;15.336;2023-02-24T08:16:25;13.33;;;9.87;;
3841;SDS011;1936;47.074;15.336;2023-02-24T08:18:39;15.40;;;11.47;;
3841;SDS011;1936;47.074;15.336;2023-02-24T08:20:49;13.30;;;11.33;;
3841;SDS011;1936;47.074;15.336;2023-02-24T08:22:54;12.27;;;10.80;;
3841;SDS011;1936;47.074;15.336;2023-02-24T08:24:58;15.33;;;11.37;;
3841;SDS011;1936;47.074;15.336;2023-02-24T08:27:06;12.23;;;10.97;;
3841;SDS011;1936;47.074;15.336;2023-02-24T08:29:10;11.43;;;10.23;;
3841;SDS011;1936;47.074;15.336;2023-02-24T08:31:13;12.27;;;10.73;;
3841;SDS011;1936;47.074;15.336;2023-02-24T08:33:21;13.83;;;10.50;;
3841;SDS011;1936;47.074;15.336;2023-02-24T08:35:26;11.33;;;10.07;;
3841;SDS011;1936;47.074;15.336;2023-02-24T08:37:33;11.50;;;10.00;;
3841;SDS011;1936;47.074;15.336;2023-02-24T08:39:40;14.50;;;9.37;;
3841;SDS011;1936;47.074;15.336;2023-02-24T08:41:44;13.00;;;11.60;;
3841;SDS011;1936;47.074;15.336;2023-02-24T08:43:51;11.90;;;10.27;;
3841;SDS011;1936;47.074;15.336;2023-02-24T08:45:55;11.87;;;9.90;;
3841;SDS011;1936;47.074;15.336;2023-02-24T08:48:01;10.93;;;9.40;;
3841;SDS011;1936;47.074;15.336;2023-02-24T08:50:20;12.17;;;10.00;;
3841;SDS011;1936;47.074;15.336;2023-02-24T08:52:26;11.87;;;10.67;;
3841;SDS011;1936;47.074;15.336;2023-02-24T08:54:32;14.93;;;11.30;;
3841;SDS011;1936;47.074;15.336;2023-02-24T08:56:47;10.80;;;9.57;;
3841;SDS011;1936;47.074;15.336;2023-02-24T08:58:57;13.70;;;11.27;;
3841;SDS011;1936;47.074;15.336;2023-02-24T09:01:10;12.97;;;10.07;;
3841;SDS011;1936;47.074;15.336;2023-02-24T09:03:21;12.53;;;10.03;;
3841;SDS011;1936;47.074;15.336;2023-02-24T09:05:35;9.83;;;8.67;;
3841;SDS011;1936;47.074;15.336;2023-02-24T09:07:41;11.57;;;10.30;;
3841;SDS011;1936;47.074;15.336;2023-02-24T09:09:44;12.37;;;9.90;;
3841;SDS011;1936;47.074;15.336;2023-02-24T09:11:48;12.60;;;10.47;;
3841;SDS011;1936;47.074;15.336;2023-02-24T09:13:57;10.07;;;9.00;;
3841;SDS011;1936;47.074;15.336;2023-02-24T09:16:02;10.63;;;9.47;;
3841;SDS011;1936;47.074;15.336;2023-02-24T09:18:06;11.10;;;9.97;;
3841;SDS011;1936;47.074;15.336;2023-02-24T09:20:15;8.97;;;8.07;;
3841;SDS011;1936;47.074;15.336;2023-02-24T09:22:53;10.37;;;8.63;;
3841;SDS011;1936;47.074;15.336;2023-02-24T09:25:03;12.47;;;10.93;;
3841;SDS011;1936;47.074;15.336;2023-02-24T09:27:22;11.63;;;10.50;;
3841;SDS011;1936;47.074;15.336;2023-02-24T09:29:32;13.50;;;10.40;;
3841;SDS011;1936;47.074;15.336;2023-02-24T09:31:35;11.70;;;9.80;;
3841;SDS011;1936;47.074;15.336;2023-02-24T09:33:49;10.87;;;8.50;;
3841;SDS011;1936;47.074;15.336;2023-02-24T09:35:54;11.90;;;9.60;;
3841;SDS011;1936;47.074;15.336;2023-02-24T09:38:11;12.30;;;9.33;;
3841;SDS011;1936;47.074;15.336;2023-02-24T09:40:17;13.67;;;9.80;;
3841;SDS011;1936;47.074;15.336;2023-02-24T09:42:40;11.60;;;9.43;;
3841;SDS011;1936;47.074;15.336;2023-02-24T09:44:49;12.20;;;9.70;;
3841;SDS011;1936;47.074;15.336;2023-02-24T09:46:57;10.83;;;9.83;;
3841;SDS011;1936;47.074;15.336;2023-02-24T09:49:11;11.53;;;10.27;;
3841;SDS011;1936;47.074;15.336;2023-02-24T09:51:18;13.67;;;9.40;;
3841;SDS011;1936;47.074;15.336;2023-02-24T09:53:25;10.23;;;9.20;;
3841;SDS011;1936;47.074;15.336;2023-02-24T09:55:43;11.50;;;10.10;;
3841;SDS011;1936;47.074;15.336;2023-02-24T09:58:05;11.27;;;9.70;;
3841;SDS011;1936;47.074;15.336;2023-02-24T10:00:45;10.53;;;9.53;;
3841;SDS011;1936;47.074;15.336;2023-02-24T10:02:58;11.30;;;9.87;;
3841;SDS011;1936;47.074;15.336;2023-02-24T10:05:21;10.23;;;9.13;;
3841;SDS011;1936;47.074;15.336;2023-02-24T10:07:30;12.17;;;9.90;;
3841;SDS011;1936;47.074;15.336;2023-02-24T10:09:41;11.23;;;9.53;;
3841;SDS011;1936;47.074;15.336;2023-02-24T10:11:49;11.93;;;10.77;;
3841;SDS011;1936;47.074;15.336;2023-02-24T10:14:05;11.43;;;9.77;;
3841;SDS011;1936;47.074;15.336;2023-02-24T10:16:20;13.00;;;9.43;;
3841;SDS011;1936;47.074;15.336;2023-02-24T10:18:27;11.27;;;9.00;;
3841;SDS011;1936;47.074;15.336;2023-02-24T10:20:34;11.00;;;9.50;;
3841;SDS011;1936;47.074;15.336;2023-02-24T10:22:46;15.67;;;9.43;;
3841;SDS011;1936;47.074;15.336;2023-02-24T10:25:00;12.20;;;9.70;;
3841;SDS011;1936;47.074;15.336;2023-02-24T10:27:13;11.30;;;10.07;;
3841;SDS011;1936;47.074;15.336;2023-02-24T10:29:27;11.67;;;9.50;;
3841;SDS011;1936;47.074;15.336;2023-02-24T10:31:37;12.63;;;11.27;;
3841;SDS011;1936;47.074;15.336;2023-02-24T10:33:46;11.47;;;10.47;;
3841;SDS011;1936;47.074;15.336;2023-02-24T10:36:02;12.93;;;11.10;;
3841;SDS011;1936;47.074;15.336;2023-02-24T10:38:10;10.60;;;9.50;;
3841;SDS011;1936;47.074;15.336;2023-02-24T10:40:16;11.43;;;10.17;;
3841;SDS011;1936;47.074;15.336;2023-02-24T10:42:34;12.30;;;10.03;;
3841;SDS011;1936;47.074;15.336;2023-02-24T10:44:46;12.10;;;10.90;;
3841;SDS011;1936;47.074;15.336;2023-02-24T10:47:03;16.00;;;11.10;;
3841;SDS011;1936;47.074;15.336;2023-02-24T10:49:22;14.57;;;13.10;;
3841;SDS011;1936;47.074;15.336;2023-02-24T10:51:31;18.73;;;13.00;;
3841;SDS011;1936;47.074;15.336;2023-02-24T10:53:40;17.23;;;14.83;;
3841;SDS011;1936;47.074;15.336;2023-02-24T10:55:55;18.53;;;15.43;;
3841;SDS011;1936;47.074;15.336;2023-02-24T10:58:19;19.77;;;15.77;;
3841;SDS011;1936;47.074;15.336;2023-02-24T11:00:38;18.93;;;16.53;;
3841;SDS011;1936;47.074;15.336;2023-02-24T11:03:07;19.07;;;16.60;;
3841;SDS011;1936;47.074;15.336;2023-02-24T11:05:28;23.27;;;16.90;;
3841;SDS011;1936;47.074;15.336;2023-02-24T11:07:44;24.30;;;17.63;;
3841;SDS011;1936;47.074;15.336;2023-02-24T11:10:01;23.10;;;17.60;;
3841;SDS011;1936;47.074;15.336;2023-02-24T11:12:13;23.50;;;17.40;;
3841;SDS011;1936;47.074;15.336;2023-02-24T11:14:45;24.80;;;18.77;;
3841;SDS011;1936;47.074;15.336;2023-02-24T11:17:15;27.10;;;19.37;;
3841;SDS011;1936;47.074;15.336;2023-02-24T11:19:28;22.17;;;19.13;;
3841;SDS011;1936;47.074;15.336;2023-02-24T11:21:32;20.20;;;17.80;;
3841;SDS011;1936;47.074;15.336;2023-02-24T11:23:37;20.87;;;17.67;;
3841;SDS011;1936;47.074;15.336;2023-02-24T11:25:45;23.13;;;16.90;;
3841;SDS011;1936;47.074;15.336;2023-02-24T11:27:52;21.17;;;17.57;;
3841;SDS011;1936;47.074;15.336;2023-02-24T11:30:02;21.57;;;15.67;;
3841;SDS011;1936;47.074;15.336;2023-02-24T11:34:49;25.53;;;17.57;;
3841;SDS011;1936;47.074;15.336;2023-02-24T11:37:01;21.30;;;17.20;;
3841;SDS011;1936;47.074;15.336;2023-02-24T11:39:22;18.33;;;16.33;;
3841;SDS011;1936;47.074;15.336;2023-02-24T11:41:44;25.10;;;16.03;;
3841;SDS011;1936;47.074;15.336;2023-02-24T11:43:55;23.60;;;16.33;;
3841;SDS011;1936;47.074;15.336;2023-02-24T11:46:04;21.63;;;16.63;;
3841;SDS011;1936;47.074;15.336;2023-02-24T11:48:12;22.40;;;15.07;;
3841;SDS011;1936;47.074;15.336;2023-02-24T11:50:25;17.40;;;13.83;;
3841;SDS011;1936;47.074;15.336;2023-02-24T11:52:34;16.23;;;14.00;;
3841;SDS011;1936;47.074;15.336;2023-02-24T11:54:43;18.97;;;14.27;;
3841;SDS011;1936;47.074;15.336;2023-02-24T11:56:51;16.07;;;14.20;;
3841;SDS011;1936;47.074;15.336;2023-02-24T11:59:00;17.50;;;15.60;;
3841;SDS011;1936;47.074;15.336;2023-02-24T12:01:11;18.37;;;15.10;;
3841;SDS011;1936;47.074;15.336;2023-02-24T12:03:22;16.13;;;14.40;;
3841;SDS011;1936;47.074;15.336;2023-02-24T12:05:32;17.87;;;16.00;;
3841;SDS011;1936;47.074;15.336;2023-02-24T12:07:38;16.07;;;14.37;;
3841;SDS011;1936;47.074;15.336;2023-02-24T12:09:46;16.90;;;15.03;;
3841;SDS011;1936;47.074;15.336;2023-02-24T12:11:59;15.80;;;14.10;;
3841;SDS011;1936;47.074;15.336;2023-02-24T12:14:14;15.83;;;14.03;;
3841;SDS011;1936;47.074;15.336;2023-02-24T12:16:24;23.63;;;14.07;;
3841;SDS011;1936;47.074;15.336;2023-02-24T12:18:34;18.07;;;15.30;;
3841;SDS011;1936;47.074;15.336;2023-02-24T12:20:42;16.93;;;15.13;;
3841;SDS011;1936;47.074;15.336;2023-02-24T12:22:51;21.73;;;15.70;;
3841;SDS011;1936;47.074;15.336;2023-02-24T12:24:58;21.50;;;14.97;;
3841;SDS011;1936;47.074;15.336;2023-02-24T12:27:02;17.37;;;15.10;;
3841;SDS011;1936;47.074;15.336;2023-02-24T12:31:59;18.33;;;16.37;;
3841;SDS011;1936;47.074;15.336;2023-02-24T12:34:12;22.70;;;16.27;;
3841;SDS011;1936;47.074;15.336;2023-02-24T12:36:26;18.10;;;14.07;;
3841;SDS011;1936;47.074;15.336;2023-02-24T12:38:52;19.37;;;15.27;;
3841;SDS011;1936;47.074;15.336;2023-02-24T12:41:07;18.23;;;14.87;;
3841;SDS011;1936;47.074;15.336;2023-02-24T12:43:21;16.93;;;14.63;;
3841;SDS011;1936;47.074;15.336;2023-02-24T12:45:32;16.53;;;14.20;;
3841;SDS011;1936;47.074;15.336;2023-02-24T12:47:52;22.67;;;15.20;;
3841;SDS011;1936;47.074;15.336;2023-02-24T12:52:30;23.23;;;15.67;;
3841;SDS011;1936;47.074;15.336;2023-02-24T12:54:41;16.77;;;13.93;;
3841;SDS011;1936;47.074;15.336;2023-02-24T12:56:54;14.33;;;12.70;;
3841;SDS011;1936;47.074;15.336;2023-02-24T12:59:07;18.37;;;15.27;;